Time;durP1;ratioP1;P1;durP2;ratioP2;P2;SDS_P1;SDS_P2;PMS_P1;PMS_P2;Temp;Humidity;BMP_temperature;BMP_pressure;BME280_temperature;BME280_humidity;BME280_pressure;Samples;Min_cycle;Max_cycle;Signal;HPM_P1;HPM_P2
2022/06/08 00:02:08;;;;;;;8.63;6.70;;;;;;;13.13;97.86;100922.72;5011885;28;20444;-47
2022/06/08 00:04:36;;;;;;;12.30;7.20;;;;;;;13.10;97.86;100923.97;5011996;28;20787;-44
2022/06/08 00:07:05;;;;;;;7.87;7.20;;;;;;;13.12;97.84;100915.69;5011789;28;20449;-46
2022/06/08 00:09:34;;;;;;;9.33;7.10;;;;;;;13.13;98.05;100917.34;5011422;28;20475;-49
2022/06/08 00:12:02;;;;;;;9.03;6.90;;;;;;;13.12;97.82;100916.53;5011828;28;20472;-47
2022/06/08 00:14:30;;;;;;;7.40;6.73;;;;;;;13.14;97.83;100919.81;5011944;28;20443;-45
2022/06/08 00:16:58;;;;;;;10.73;7.63;;;;;;;13.15;97.87;100916.13;5011758;28;20461;-45
2022/06/08 00:19:26;;;;;;;8.53;7.53;;;;;;;13.11;97.61;100912.19;5011253;28;20476;-46
2022/06/08 00:21:53;;;;;;;9.10;6.67;;;;;;;13.13;97.54;100912.00;5011807;28;20444;-45
2022/06/08 00:24:21;;;;;;;8.73;7.23;;;;;;;13.11;97.61;100906.84;5011922;28;20456;-45
2022/06/08 00:26:50;;;;;;;7.00;6.30;;;;;;;13.10;97.54;100912.41;5011787;28;20445;-47
2022/06/08 00:29:17;;;;;;;16.27;7.97;;;;;;;13.13;97.72;100903.97;5011264;28;20460;-46
2022/06/08 00:31:45;;;;;;;7.30;6.60;;;;;;;13.14;98.06;100906.44;5011292;28;20433;-45
2022/06/08 00:34:13;;;;;;;8.10;7.00;;;;;;;13.11;97.56;100909.53;5011776;28;20491;-46
2022/06/08 00:36:41;;;;;;;8.10;7.27;;;;;;;13.15;97.57;100909.94;5011765;28;20457;-47
2022/06/08 00:39:08;;;;;;;8.87;8.07;;;;;;;13.16;97.66;100901.72;5011058;28;20997;-45
2022/06/08 00:41:46;;;;;;;9.83;8.90;;;;;;;13.15;97.72;100907.25;5011466;28;20441;-45
2022/06/08 00:44:18;;;;;;;9.03;8.13;;;;;;;13.18;97.67;100901.47;5011592;28;20433;-47
2022/06/08 00:46:46;;;;;;;12.77;8.90;;;;;;;13.13;97.53;100895.94;5012696;28;20811;-46
2022/06/08 00:49:22;;;;;;;10.63;9.50;;;;;;;13.11;97.75;100898.00;5014942;28;20461;-47
2022/06/08 00:51:50;;;;;;;11.67;8.53;;;;;;;13.13;97.56;100896.75;5015124;28;20428;-45
2022/06/08 00:54:23;;;;;;;10.47;8.70;;;;;;;13.14;97.44;100900.28;5015301;28;20437;-48
2022/06/08 00:56:55;;;;;;;9.83;8.93;;;;;;;13.13;97.37;100893.25;5015128;28;20448;-49
2022/06/08 00:59:24;;;;;;;11.00;8.43;;;;;;;13.14;97.42;100889.56;5014638;28;20483;-45
2022/06/08 01:01:52;;;;;;;10.80;8.90;;;;;;;13.13;97.34;100887.91;5014925;28;20536;-45
2022/06/08 01:04:21;;;;;;;10.07;9.03;;;;;;;13.14;97.15;100897.59;5015149;28;20810;-44
2022/06/08 01:06:54;;;;;;;9.27;8.40;;;;;;;13.17;97.42;100891.81;5014998;28;20444;-45
2022/06/08 01:09:28;;;;;;;9.30;8.37;;;;;;;13.17;97.54;100897.97;5014528;28;20465;-45
2022/06/08 01:11:59;;;;;;;9.13;7.73;;;;;;;13.19;97.46;100897.78;5014984;28;20435;-45
2022/06/08 01:14:29;;;;;;;12.60;8.43;;;;;;;13.18;97.55;100894.28;5014826;28;20439;-44
2022/06/08 01:17:02;;;;;;;12.93;8.30;;;;;;;13.11;97.32;100904.16;5014798;28;20464;-48
2022/06/08 01:19:33;;;;;;;9.23;7.30;;;;;;;13.10;97.24;100897.19;5014316;28;20481;-46
2022/06/08 01:22:04;;;;;;;8.10;7.27;;;;;;;13.07;97.37;100902.09;5014539;28;20831;-44
2022/06/08 01:24:32;;;;;;;7.93;7.13;;;;;;;13.06;97.31;100892.41;5014984;28;20440;-48
2022/06/08 01:27:19;;;;;;;7.57;6.80;;;;;;;13.06;97.32;100892.41;5014736;28;20460;-48
2022/06/08 01:30:00;;;;;;;7.60;6.70;;;;;;;13.06;97.20;100889.72;5014499;28;20440;-44
2022/06/08 01:32:32;;;;;;;6.87;6.27;;;;;;;13.06;97.30;100897.75;5007717;28;20437;-44
2022/06/08 01:35:14;;;;;;;7.37;6.67;;;;;;;13.08;97.27;100898.44;5014744;28;20870;-46
2022/06/08 01:37:50;;;;;;;7.43;6.67;;;;;;;13.12;96.95;100899.63;5014048;28;20494;-44
2022/06/08 01:40:35;;;;;;;7.73;6.80;;;;;;;13.08;97.44;100888.53;5014159;28;20488;-47
2022/06/08 01:43:10;;;;;;;6.80;6.20;;;;;;;13.07;97.11;100897.56;5014425;28;20441;-46
2022/06/08 01:45:51;;;;;;;6.63;5.97;;;;;;;13.11;97.13;100892.66;5014393;28;20429;-47
2022/06/08 01:48:31;;;;;;;9.67;7.80;;;;;;;13.07;97.25;100891.38;5014023;28;20537;-44
2022/06/08 01:51:10;;;;;;;7.93;7.13;;;;;;;13.08;96.89;100893.06;5013869;28;20435;-48
2022/06/08 01:53:49;;;;;;;7.13;6.67;;;;;;;13.09;97.05;100886.66;5014340;28;20837;-46
2022/06/08 01:56:25;;;;;;;7.47;6.87;;;;;;;13.05;96.83;100886.22;5014032;28;20495;-46
2022/06/08 01:59:03;;;;;;;8.00;7.20;;;;;;;13.08;96.83;100887.72;5013339;28;20957;-44
2022/06/08 02:01:39;;;;;;;7.97;7.17;;;;;;;13.07;97.07;100888.72;5013779;28;20450;-47
2022/06/08 02:04:18;;;;;;;8.43;7.60;;;;;;;13.08;96.70;100885.84;5014369;28;20817;-45
2022/06/08 02:06:51;;;;;;;8.87;8.07;;;;;;;13.22;96.66;100883.97;5013968;28;21115;-47
2022/06/08 02:09:26;;;;;;;7.37;6.77;;;;;;;13.12;96.83;100880.91;5013439;28;20464;-45
2022/06/08 02:11:59;;;;;;;7.07;6.33;;;;;;;13.16;96.59;100880.28;5013533;28;20919;-45
2022/06/08 02:14:32;;;;;;;10.70;7.50;;;;;;;13.17;96.73;100886.47;5013735;28;20433;-48
2022/06/08 02:17:08;;;;;;;8.30;7.40;;;;;;;13.14;96.60;100881.53;5013818;28;20479;-47
2022/06/08 02:19:40;;;;;;;9.67;8.07;;;;;;;13.15;96.64;100878.63;5013196;28;20480;-45
2022/06/08 02:22:12;;;;;;;8.10;7.23;;;;;;;13.15;96.91;100869.75;5013421;28;20436;-47
2022/06/08 02:24:44;;;;;;;10.53;8.53;;;;;;;13.13;96.91;100874.50;5013856;28;20433;-46
2022/06/08 02:27:16;;;;;;;13.43;8.07;;;;;;;13.13;96.77;100864.63;5013440;28;20961;-45
2022/06/08 02:29:50;;;;;;;11.83;7.63;;;;;;;13.10;97.01;100874.94;5013424;28;20445;-46
2022/06/08 02:35:16;;;;;;;6.57;5.90;;;;;;;12.97;96.85;100870.41;5013585;28;20440;-46
2022/06/08 02:37:49;;;;;;;12.80;7.47;;;;;;;12.95;96.62;100872.47;5012975;28;20487;-44
2022/06/08 02:40:23;;;;;;;9.37;7.30;;;;;;;12.94;96.66;100864.63;5013046;28;20473;-47
2022/06/08 02:42:55;;;;;;;7.50;6.80;;;;;;;13.04;96.79;100860.50;5013374;28;20819;-46
2022/06/08 02:45:30;;;;;;;11.60;7.40;;;;;;;12.99;97.02;100860.28;5013107;28;20441;-44
2022/06/08 02:48:02;;;;;;;8.70;7.37;;;;;;;13.01;97.04;100865.44;5012372;28;20452;-46
2022/06/08 02:50:31;;;;;;;12.53;6.73;;;;;;;12.94;96.86;100862.78;5012789;28;20949;-46
2022/06/08 02:53:29;;;;;;;7.90;7.13;;;;;;;12.93;97.17;100863.81;5013100;28;20447;-44
2022/06/08 02:56:07;;;;;;;11.83;7.47;;;;;;;12.94;96.90;100870.81;5012826;28;20532;-44
2022/06/08 02:58:40;;;;;;;13.80;8.53;;;;;;;12.93;96.96;100871.84;5012569;28;20460;-45
2022/06/08 03:01:14;;;;;;;11.43;8.30;;;;;;;12.94;97.23;100869.97;5012804;28;20472;-46
2022/06/08 03:03:47;;;;;;;10.27;9.30;;;;;;;12.93;96.96;100876.38;5012930;28;20441;-44
2022/06/08 03:06:20;;;;;;;11.27;9.17;;;;;;;12.95;97.05;100877.00;5012786;28;20904;-46
2022/06/08 03:08:56;;;;;;;11.00;7.53;;;;;;;13.00;97.05;100872.66;5011574;28;20480;-44
2022/06/08 03:11:39;;;;;;;12.70;8.97;;;;;;;13.04;96.82;100876.56;5012422;28;20435;-47
2022/06/08 03:14:10;;;;;;;10.40;9.17;;;;;;;13.04;96.97;100859.69;5012872;28;20441;-46
2022/06/08 03:16:40;;;;;;;9.33;8.50;;;;;;;13.02;97.18;100875.94;5012392;28;20464;-44
2022/06/08 03:19:09;;;;;;;9.00;7.97;;;;;;;13.00;97.05;100866.47;5012110;28;20471;-46
2022/06/08 03:21:37;;;;;;;15.20;8.50;;;;;;;13.01;96.83;100871.63;5012558;28;20437;-45
2022/06/08 03:24:06;;;;;;;8.93;7.13;;;;;;;12.97;97.25;100880.28;5012540;28;20954;-48
2022/06/08 03:26:41;;;;;;;8.67;7.93;;;;;;;12.97;96.82;100880.28;5012476;28;20461;-45
2022/06/08 03:29:10;;;;;;;9.23;6.73;;;;;;;12.93;96.95;100871.03;5012038;28;20466;-46
2022/06/08 03:31:37;;;;;;;16.43;7.17;;;;;;;12.94;97.06;100878.00;5006557;28;20438;-46
2022/06/08 03:34:05;;;;;;;9.17;7.13;;;;;;;12.95;97.11;100885.03;5011913;28;20810;-45
2022/06/08 03:36:33;;;;;;;8.03;7.33;;;;;;;12.96;97.15;100884.00;5012354;28;20457;-45
2022/06/08 03:39:00;;;;;;;9.73;7.57;;;;;;;12.98;97.09;100881.94;5011939;28;20468;-44
2022/06/08 03:41:31;;;;;;;10.83;7.50;;;;;;;12.99;97.17;100873.69;5011898;28;20547;-49
2022/06/08 03:44:00;;;;;;;8.00;7.20;;;;;;;13.00;96.81;100879.84;5012443;28;20463;-47
2022/06/08 03:46:29;;;;;;;8.43;7.57;;;;;;;12.97;96.87;100883.78;5012049;28;20974;-45
2022/06/08 03:48:57;;;;;;;9.40;7.07;;;;;;;12.98;97.29;100884.59;5011806;28;20548;-44
2022/06/08 03:51:25;;;;;;;7.50;6.80;;;;;;;13.00;96.91;100882.53;5011843;28;20444;-44
2022/06/08 03:53:56;;;;;;;11.10;7.20;;;;;;;13.01;97.17;100874.31;5012071;28;20440;-44
2022/06/08 03:56:27;;;;;;;9.63;6.43;;;;;;;13.00;97.13;100879.84;5011986;28;20481;-44
2022/06/08 03:58:56;;;;;;;8.33;6.83;;;;;;;12.97;96.88;100882.94;5011738;28;20456;-44
2022/06/08 04:01:26;;;;;;;8.70;6.10;;;;;;;13.00;96.82;100879.84;5011865;28;20473;-46
2022/06/08 04:03:55;;;;;;;8.50;6.60;;;;;;;13.03;97.05;100890.16;5012015;28;20440;-47
2022/06/08 04:06:23;;;;;;;6.73;6.20;;;;;;;13.03;96.84;100890.97;5011916;28;20823;-44
2022/06/08 04:08:51;;;;;;;10.30;6.87;;;;;;;13.02;97.18;100891.19;5011583;28;20460;-45
2022/06/08 04:11:19;;;;;;;7.67;7.07;;;;;;;13.03;97.04;100893.66;5011899;28;20421;-43
2022/06/08 04:13:47;;;;;;;11.13;7.07;;;;;;;12.99;96.72;100895.09;5012067;28;20429;-45
2022/06/08 04:16:16;;;;;;;7.60;6.90;;;;;;;13.02;96.73;100893.88;5011780;28;20465;-45
2022/06/08 04:18:45;;;;;;;7.57;6.87;;;;;;;13.03;97.04;100896.34;5011440;28;20473;-45
2022/06/08 04:21:16;;;;;;;11.03;7.70;;;;;;;13.06;96.95;100892.41;5012035;28;20480;-44
2022/06/08 04:23:46;;;;;;;7.57;6.50;;;;;;;13.09;96.95;100892.84;5016152;28;20441;-44
2022/06/08 04:26:15;;;;;;;8.77;7.30;;;;;;;13.14;97.06;100884.22;5015959;28;20441;-47
2022/06/08 04:28:45;;;;;;;9.47;8.20;;;;;;;13.17;96.63;100887.25;5015314;28;20475;-47
2022/06/08 04:31:13;;;;;;;8.17;7.23;;;;;;;13.23;96.97;100888.31;5015548;28;20780;-48
2022/06/08 04:33:41;;;;;;;11.73;7.10;;;;;;;13.29;96.90;100885.59;5016019;28;20433;-47
2022/06/08 04:36:14;;;;;;;6.83;6.13;;;;;;;13.36;96.89;100880.22;5015866;28;20511;-44
2022/06/08 04:38:41;;;;;;;9.57;6.90;;;;;;;13.40;96.73;100881.44;5015092;28;20464;-48
2022/06/08 04:41:09;;;;;;;9.63;7.63;;;;;;;13.46;96.71;100877.91;5015342;28;20477;-45
2022/06/08 04:43:37;;;;;;;11.80;7.60;;;;;;;13.52;96.29;100876.25;5015625;28;20440;-45
2022/06/08 04:46:05;;;;;;;9.70;7.90;;;;;;;13.56;96.58;100874.81;5015373;28;20484;-48
2022/06/08 04:48:33;;;;;;;8.67;7.87;;;;;;;13.59;96.28;100875.16;5014996;28;20523;-44
2022/06/08 04:51:01;;;;;;;7.00;6.40;;;;;;;13.60;95.96;100873.31;5015300;28;20435;-46
2022/06/08 04:53:30;;;;;;;10.03;6.33;;;;;;;13.57;95.83;100871.88;5015332;28;20519;-44
2022/06/08 04:55:58;;;;;;;9.40;7.10;;;;;;;13.63;96.15;100872.88;5015317;28;20445;-48
2022/06/08 04:58:26;;;;;;;8.60;6.20;;;;;;;13.68;96.05;100873.88;5014809;28;20460;-46
2022/06/08 05:00:54;;;;;;;6.77;6.17;;;;;;;13.74;95.74;100862.31;5015142;28;21011;-44
2022/06/08 05:03:22;;;;;;;8.10;6.07;;;;;;;13.80;95.47;100866.81;5015353;28;20806;-45
2022/06/08 05:05:49;;;;;;;7.73;6.77;;;;;;;13.92;95.19;100868.84;5015122;28;20448;-44
2022/06/08 05:08:18;;;;;;;8.53;6.20;;;;;;;14.02;95.64;100866.50;5014778;28;20478;-46
2022/06/08 05:10:50;;;;;;;6.53;5.97;;;;;;;14.09;94.76;100859.25;5014737;28;20425;-49
2022/06/08 05:13:19;;;;;;;6.40;5.63;;;;;;;14.21;94.98;100870.91;5014848;28;20555;-45
2022/06/08 05:15:47;;;;;;;7.53;6.00;;;;;;;14.23;93.96;100876.88;5014888;28;20455;-48
2022/06/08 05:18:18;;;;;;;6.77;6.37;;;;;;;14.32;94.21;100873.75;5014594;28;20480;-47
2022/06/08 05:20:46;;;;;;;8.40;6.23;;;;;;;14.43;94.06;100866.03;5014657;28;20460;-44
2022/06/08 05:23:17;;;;;;;6.70;6.10;;;;;;;14.48;93.64;100872.41;5014828;28;20433;-51
2022/06/08 05:25:45;;;;;;;9.33;7.47;;;;;;;14.55;93.26;100872.31;5014661;28;20456;-51
2022/06/08 05:28:14;;;;;;;7.20;6.50;;;;;;;14.59;92.97;100879.72;5014384;28;20461;-45
2022/06/08 05:30:44;;;;;;;10.70;7.50;;;;;;;14.64;92.46;100874.50;5033933;23;20913;-46
2022/06/08 05:33:13;;;;;;;8.00;7.20;;;;;;;14.73;92.20;100872.38;5005295;28;20788;-46
2022/06/08 05:35:41;;;;;;;6.03;5.43;;;;;;;14.80;91.59;100867.78;5014596;28;20786;-50
2022/06/08 05:38:09;;;;;;;6.50;6.10;;;;;;;14.90;91.86;100870.78;5014034;28;20556;-49
2022/06/08 05:40:37;;;;;;;9.03;6.40;;;;;;;15.17;92.52;100871.34;5014128;28;20452;-47
2022/06/08 05:43:06;;;;;;;7.67;6.63;;;;;;;15.50;92.54;100869.13;5014690;28;20837;-50
2022/06/08 05:45:35;;;;;;;10.37;6.40;;;;;;;15.77;90.54;100874.97;5014375;28;20433;-48
2022/06/08 05:48:04;;;;;;;9.03;6.53;;;;;;;15.93;87.67;100863.56;5014003;28;20465;-47
2022/06/08 05:50:32;;;;;;;10.50;6.20;;;;;;;17.37;91.68;100863.81;5013968;28;20521;-47
2022/06/08 05:53:00;;;;;;;10.17;7.00;;;;;;;19.17;85.49;100856.47;5014504;28;20444;-50
2022/06/08 05:55:28;;;;;;;8.70;6.60;;;;;;;20.80;74.21;100865.19;5014489;28;20468;-45
2022/06/08 05:57:56;;;;;;;6.40;5.80;;;;;;;22.10;71.76;100860.66;5013924;28;20472;-44
2022/06/08 06:00:26;;;;;;;6.83;6.17;;;;;;;21.86;64.43;100858.38;5013895;28;20432;-47
2022/06/08 06:02:56;;;;;;;7.83;6.50;;;;;;;21.65;61.49;100867.56;5014077;28;20475;-48
2022/06/08 06:05:26;;;;;;;7.43;6.63;;;;;;;21.21;61.98;100866.28;5013915;28;20433;-47
2022/06/08 06:07:55;;;;;;;7.90;7.30;;;;;;;20.88;61.42;100857.38;5013759;28;20466;-49
2022/06/08 06:10:24;;;;;;;8.33;7.63;;;;;;;20.32;61.85;100860.75;5013664;28;20967;-49
2022/06/08 06:12:54;;;;;;;8.63;7.93;;;;;;;20.22;62.61;100866.84;5013952;28;20432;-51
2022/06/08 06:15:24;;;;;;;8.37;6.87;;;;;;;20.12;63.96;100864.06;5013784;28;20425;-50
2022/06/08 06:17:52;;;;;;;8.03;7.40;;;;;;;19.74;62.55;100866.94;5013152;28;20992;-47
2022/06/08 06:20:21;;;;;;;7.43;6.87;;;;;;;19.42;65.13;100863.28;5013588;28;20424;-46
2022/06/08 06:22:49;;;;;;;11.83;6.40;;;;;;;19.22;65.99;100872.75;5013551;28;20997;-45
2022/06/08 06:25:18;;;;;;;7.77;6.73;;;;;;;18.99;65.76;100869.44;5013661;28;20433;-47
2022/06/08 06:27:46;;;;;;;8.50;7.67;;;;;;;18.77;67.37;100872.09;5013136;28;20468;-47
2022/06/08 06:30:15;;;;;;;8.93;8.10;;;;;;;18.60;68.08;100871.28;5013178;28;20437;-45
2022/06/08 06:32:44;;;;;;;9.23;8.43;;;;;;;18.48;69.38;100868.63;5006765;28;20449;-47
2022/06/08 06:35:18;;;;;;;11.30;8.10;;;;;;;18.28;69.70;100868.28;4998504;28;20435;-47
2022/06/08 06:37:47;;;;;;;8.57;7.73;;;;;;;18.13;70.66;100866.13;5013001;28;20985;-45
2022/06/08 06:40:14;;;;;;;7.87;7.27;;;;;;;18.12;72.57;100872.59;5013244;28;20455;-45
2022/06/08 06:42:43;;;;;;;9.23;7.93;;;;;;;18.11;71.95;100870.97;5013129;28;21008;-45
2022/06/08 06:45:12;;;;;;;10.30;8.63;;;;;;;17.95;71.19;100865.53;5012540;28;20455;-45
2022/06/08 06:47:39;;;;;;;9.83;8.87;;;;;;;17.98;72.64;100871.25;5012980;28;20453;-47
2022/06/08 06:50:11;;;;;;;9.53;8.77;;;;;;;18.09;72.81;100864.16;5013295;28;20429;-46
2022/06/08 06:52:39;;;;;;;11.40;10.23;;;;;;;18.54;73.25;100865.00;5013144;28;20457;-45
2022/06/08 06:55:09;;;;;;;9.93;9.03;;;;;;;19.00;71.99;100865.66;5013051;28;20437;-44
2022/06/08 06:57:37;;;;;;;10.47;9.53;;;;;;;19.80;68.31;100872.13;5012877;28;20496;-46
2022/06/08 07:00:05;;;;;;;9.80;8.23;;;;;;;20.41;66.96;100865.44;5013286;28;20440;-49
2022/06/08 07:02:33;;;;;;;8.67;7.97;;;;;;;21.14;65.36;100869.25;5012839;28;20482;-46
2022/06/08 07:05:01;;;;;;;9.43;8.63;;;;;;;22.13;61.65;100865.53;5013095;28;20527;-48
2022/06/08 07:07:28;;;;;;;8.60;8.10;;;;;;;22.19;61.29;100872.63;5012489;28;20475;-47
2022/06/08 07:09:56;;;;;;;10.50;9.53;;;;;;;22.05;58.39;100866.88;5012730;28;20428;-47
2022/06/08 07:12:25;;;;;;;9.30;8.60;;;;;;;21.89;58.33;100863.31;5012784;28;20455;-48
2022/06/08 07:14:52;;;;;;;8.70;8.10;;;;;;;21.86;58.15;100863.03;5012653;28;20441;-49
2022/06/08 07:17:20;;;;;;;8.27;7.87;;;;;;;21.73;56.82;100864.34;5012373;28;20432;-49
2022/06/08 07:19:47;;;;;;;9.40;8.60;;;;;;;21.70;58.29;100864.88;5012788;28;20440;-45
2022/06/08 07:22:15;;;;;;;10.13;9.53;;;;;;;21.52;55.95;100858.03;5012492;28;20487;-47
2022/06/08 07:24:42;;;;;;;9.63;8.83;;;;;;;21.50;58.74;100857.44;5012863;28;20440;-45
2022/06/08 07:27:10;;;;;;;9.60;8.83;;;;;;;21.62;58.04;100851.00;5012844;28;20437;-47
2022/06/08 07:29:39;;;;;;;10.93;9.40;;;;;;;21.60;57.58;100842.28;5012377;28;20448;-52
2022/06/08 07:32:07;;;;;;;9.57;8.80;;;;;;;21.86;58.45;100842.09;5005605;28;20461;-52
2022/06/08 07:34:35;;;;;;;9.27;8.47;;;;;;;21.85;56.11;100837.75;5004235;28;20436;-47
2022/06/08 07:37:03;;;;;;;8.73;8.13;;;;;;;21.67;56.67;100843.69;5012326;28;20432;-47
2022/06/08 07:39:31;;;;;;;9.30;8.63;;;;;;;21.70;56.88;100853.19;5011941;28;20841;-49
2022/06/08 07:41:58;;;;;;;8.50;7.87;;;;;;;21.68;57.73;100855.38;5012220;28;20480;-49
2022/06/08 07:44:26;;;;;;;10.40;8.97;;;;;;;21.43;57.82;100861.50;5012410;28;20440;-50
2022/06/08 07:46:55;;;;;;;9.93;9.03;;;;;;;21.18;57.81;100867.63;5012269;28;20432;-47
2022/06/08 07:49:39;;;;;;;10.70;9.80;;;;;;;21.01;58.91;100866.97;5011746;28;20472;-50
2022/06/08 07:52:09;;;;;;;9.00;8.40;;;;;;;20.94;58.89;100869.91;5012110;28;20449;-45
2022/06/08 07:54:38;;;;;;;11.27;10.20;;;;;;;20.86;57.96;100872.28;5012210;28;20436;-48
2022/06/08 07:57:08;;;;;;;9.83;8.83;;;;;;;20.55;59.37;100868.53;5012004;28;20439;-49
2022/06/08 07:59:37;;;;;;;9.93;9.33;;;;;;;20.28;59.70;100867.78;5011664;28;20468;-49
2022/06/08 08:02:08;;;;;;;10.67;9.87;;;;;;;20.12;61.05;100872.19;5011636;28;20484;-48
2022/06/08 08:04:37;;;;;;;10.07;9.57;;;;;;;20.84;61.41;100877.97;5012265;28;20444;-47
2022/06/08 08:07:05;;;;;;;11.17;10.30;;;;;;;21.06;59.19;100871.56;5012191;28;20436;-47
2022/06/08 08:09:34;;;;;;;12.17;11.17;;;;;;;20.86;57.73;100864.97;5011555;28;20475;-49
2022/06/08 08:12:02;;;;;;;10.67;9.77;;;;;;;20.80;57.55;100862.47;5011751;28;20816;-51
2022/06/08 08:14:33;;;;;;;10.40;9.53;;;;;;;20.77;56.78;100871.97;5011912;28;20815;-45
2022/06/08 08:17:01;;;;;;;9.97;8.53;;;;;;;20.81;58.33;100856.00;5012148;28;20439;-47
2022/06/08 08:19:32;;;;;;;9.20;8.50;;;;;;;20.97;58.44;100860.41;5011553;28;21001;-51
2022/06/08 08:22:00;;;;;;;10.50;9.60;;;;;;;21.03;57.32;100853.94;5011714;28;20467;-45
2022/06/08 08:24:28;;;;;;;10.63;9.63;;;;;;;21.02;57.83;100855.03;5011876;28;20429;-46
2022/06/08 08:26:56;;;;;;;10.00;9.20;;;;;;;20.88;56.15;100857.38;5011681;28;20428;-47
2022/06/08 08:29:23;;;;;;;9.30;8.40;;;;;;;21.03;57.73;100853.94;5011373;28;20475;-49
2022/06/08 08:31:51;;;;;;;9.77;8.97;;;;;;;21.06;56.05;100853.41;5004744;28;20467;-48
2022/06/08 08:34:19;;;;;;;8.93;8.27;;;;;;;21.37;56.48;100843.56;5003686;28;20432;-50
2022/06/08 08:36:48;;;;;;;11.57;10.47;;;;;;;21.63;57.30;100852.63;5011858;28;20432;-50
2022/06/08 08:39:16;;;;;;;10.03;9.23;;;;;;;21.67;55.93;100853.72;5011206;28;21024;-47
2022/06/08 08:44:38;;;;;;;11.33;10.63;;;;;;;21.24;57.51;100850.28;5011895;28;20437;-49
2022/06/08 08:47:16;;;;;;;13.60;12.43;;;;;;;21.05;57.75;100853.69;5011798;28;20437;-46
2022/06/08 08:49:49;;;;;;;11.43;10.60;;;;;;;20.95;58.65;100857.16;5011435;28;20520;-49
2022/06/08 08:52:31;;;;;;;12.77;11.97;;;;;;;20.55;58.33;100848.78;5011580;28;20471;-48
2022/06/08 08:55:04;;;;;;;12.87;11.90;;;;;;;20.49;59.64;100852.50;5011763;28;20795;-50
2022/06/08 08:57:42;;;;;;;12.67;11.60;;;;;;;20.36;59.71;100846.44;5011229;28;20433;-48
2022/06/08 09:00:19;;;;;;;12.77;11.83;;;;;;;20.26;60.25;100853.66;5011374;28;20460;-47
2022/06/08 09:05:33;;;;;;;11.50;10.70;;;;;;;20.48;60.13;100835.44;5011659;28;20428;-46
2022/06/08 09:08:02;;;;;;;11.80;10.90;;;;;;;20.78;60.41;100824.00;5012468;28;20486;-49
2022/06/08 09:10:29;;;;;;;9.13;8.40;;;;;;;21.30;59.05;100827.53;5015024;28;20468;-47
2022/06/08 09:12:58;;;;;;;14.13;9.77;;;;;;;21.79;58.38;100819.84;5014950;28;20433;-50
2022/06/08 09:15:45;;;;;;;10.93;10.00;;;;;;;22.53;54.37;100812.00;5014978;28;20929;-46
2022/06/08 09:18:21;;;;;;;11.90;10.70;;;;;;;22.99;53.84;100809.22;5014456;28;20949;-44
2022/06/08 09:20:49;;;;;;;10.63;9.67;;;;;;;23.26;53.54;100814.31;5014651;28;20448;-46
2022/06/08 09:23:26;;;;;;;11.87;11.07;;;;;;;23.38;50.37;100812.06;5014629;28;20471;-46
2022/06/08 09:26:04;;;;;;;12.17;11.07;;;;;;;23.67;48.34;100797.50;5015015;28;20534;-46
2022/06/08 09:28:34;;;;;;;10.27;9.50;;;;;;;23.77;50.89;100798.53;5014666;28;20464;-44
2022/06/08 09:31:02;;;;;;;12.50;11.33;;;;;;;24.10;50.50;100787.69;5013491;28;20456;-46
2022/06/08 09:33:34;;;;;;;10.10;9.40;;;;;;;24.02;50.27;100780.09;5003023;28;20780;-44
2022/06/08 09:36:06;;;;;;;11.47;10.57;;;;;;;23.75;50.36;100782.47;5013894;28;20439;-48
2022/06/08 09:38:40;;;;;;;10.83;9.83;;;;;;;23.83;50.63;100786.53;5014333;28;20464;-45
2022/06/08 09:41:17;;;;;;;12.17;11.27;;;;;;;23.74;50.26;100783.59;5014470;28;20436;-47
2022/06/08 09:44:20;;;;;;;12.67;11.63;;;;;;;23.91;47.56;100775.84;5014309;28;20489;-48
2022/06/08 09:52:54;;;;;;;15.20;14.00;;;;;;;23.54;49.63;100775.53;5014685;28;20478;-46
2022/06/08 09:55:35;;;;;;;13.83;12.70;;;;;;;24.00;49.19;100773.31;5014331;28;20432;-45
2022/06/08 09:58:17;;;;;;;13.63;12.53;;;;;;;23.79;49.20;100771.84;5013695;28;20474;-47
2022/06/08 10:00:59;;;;;;;12.47;11.57;;;;;;;23.41;50.39;100773.44;5014063;28;20456;-47
2022/06/08 10:03:48;;;;;;;12.70;11.70;;;;;;;23.22;50.22;100772.41;5013969;28;20472;-44
2022/06/08 10:06:27;;;;;;;13.70;12.70;;;;;;;23.20;51.07;100763.72;5014117;28;20467;-44
2022/06/08 10:09:08;;;;;;;15.10;13.73;;;;;;;23.26;51.09;100771.59;5013377;28;20468;-45
2022/06/08 10:11:43;;;;;;;16.47;14.57;;;;;;;23.78;50.27;100768.28;5013801;28;20455;-46
2022/06/08 10:14:19;;;;;;;16.80;15.23;;;;;;;24.14;47.62;100758.78;5013956;28;20526;-43
2022/06/08 10:16:53;;;;;;;14.83;13.43;;;;;;;23.95;48.54;100765.19;5013811;28;20432;-45
2022/06/08 10:19:26;;;;;;;15.27;13.90;;;;;;;24.30;48.03;100764.09;5013142;28;20514;-49
2022/06/08 10:21:54;;;;;;;15.60;14.20;;;;;;;24.08;48.18;100765.34;5013777;28;20448;-45
2022/06/08 10:24:27;;;;;;;12.50;11.50;;;;;;;24.34;47.55;100773.34;5013577;28;20476;-45
2022/06/08 10:27:06;;;;;;;14.13;13.13;;;;;;;24.19;48.29;100768.84;5013429;28;20428;-47
2022/06/08 10:29:42;;;;;;;14.57;13.27;;;;;;;24.04;49.37;100766.22;5012883;28;20507;-47
2022/06/08 10:32:16;;;;;;;12.70;11.70;;;;;;;24.09;49.97;100771.59;5006329;28;20462;-47
2022/06/08 10:34:44;;;;;;;14.90;13.53;;;;;;;23.86;49.39;100767.72;5005725;28;20418;-46
2022/06/08 10:37:16;;;;;;;12.03;11.13;;;;;;;23.64;50.16;100778.19;4993889;28;20433;-46
2022/06/08 10:39:46;;;;;;;12.93;11.83;;;;;;;23.55;50.25;100777.16;4993714;28;20446;-46
2022/06/08 10:42:40;;;;;;;15.13;13.87;;;;;;;23.55;50.48;100775.25;4993622;28;20908;-45
2022/06/08 10:45:47;;;;;;;14.53;13.03;;;;;;;23.65;50.25;100777.13;4993713;28;20505;-45
2022/06/08 10:48:28;;;;;;;13.20;11.80;;;;;;;24.02;48.55;100779.28;4991470;28;20465;-44
2022/06/08 10:51:29;;;;;;;13.37;12.33;;;;;;;24.12;48.32;100763.72;4993536;28;20456;-50
2022/06/08 10:56:59;;;;;;;14.47;13.20;;;;;;;24.79;47.54;100759.22;4993578;28;20924;-47
2022/06/08 10:59:31;;;;;;;13.73;12.70;;;;;;;24.37;47.96;100770.81;4992982;28;20461;-46
2022/06/08 11:02:18;;;;;;;15.57;14.10;;;;;;;24.29;48.29;100766.00;4993136;28;21003;-45
2022/06/08 11:04:58;;;;;;;15.00;13.80;;;;;;;24.14;47.67;100760.69;4993304;28;20477;-47
2022/06/08 11:07:27;;;;;;;14.30;13.20;;;;;;;24.08;48.59;100762.63;4992775;28;20425;-45
2022/06/08 11:10:04;;;;;;;14.63;13.40;;;;;;;24.34;49.07;100763.25;4993338;28;20441;-47
2022/06/08 11:12:50;;;;;;;13.93;12.83;;;;;;;24.68;48.51;100772.16;4993241;28;20560;-45
2022/06/08 11:15:30;;;;;;;11.97;11.13;;;;;;;24.48;48.99;100766.91;4993210;28;20884;-48
2022/06/08 11:18:04;;;;;;;12.80;11.70;;;;;;;24.63;48.93;100765.94;4992811;28;20495;-47
2022/06/08 11:20:40;;;;;;;11.40;10.53;;;;;;;24.71;48.63;100768.03;4993057;28;20429;-45
2022/06/08 11:23:15;;;;;;;12.80;11.63;;;;;;;24.82;48.47;100760.59;4993092;28;20528;-45
2022/06/08 11:25:50;;;;;;;11.90;11.00;;;;;;;24.74;48.57;100754.63;4992934;28;20477;-44
2022/06/08 11:28:31;;;;;;;10.93;9.90;;;;;;;24.59;48.38;100759.44;4992371;28;20461;-45
2022/06/08 11:31:02;;;;;;;10.40;9.70;;;;;;;24.48;47.60;100764.19;4992070;28;20500;-47
2022/06/08 11:33:51;;;;;;;12.63;11.40;;;;;;;24.53;47.62;100768.78;5000826;28;20437;-44
2022/06/08 11:36:36;;;;;;;9.53;8.90;;;;;;;24.73;47.42;100758.47;4973354;28;20430;-44
2022/06/08 11:39:17;;;;;;;11.07;10.03;;;;;;;24.76;48.63;100755.16;4972935;28;20472;-44
2022/06/08 11:41:59;;;;;;;9.97;9.20;;;;;;;24.60;45.90;100755.63;4973122;28;20816;-47
2022/06/08 11:44:33;;;;;;;14.93;13.50;;;;;;;24.41;48.59;100752.00;4973176;28;20486;-48
2022/06/08 11:47:12;;;;;;;12.93;12.10;;;;;;;24.32;48.24;100749.06;4973110;28;20433;-44
2022/06/08 11:49:43;;;;;;;13.90;12.80;;;;;;;24.23;48.49;100746.16;4973099;28;20438;-50
2022/06/08 11:52:24;;;;;;;12.33;11.43;;;;;;;24.09;48.68;100755.25;4972765;28;20964;-46
2022/06/08 11:55:27;;;;;;;11.87;10.77;;;;;;;24.18;49.13;100754.41;4973230;28;20431;-47
2022/06/08 11:58:00;;;;;;;12.20;11.00;;;;;;;24.16;49.82;100747.63;4970242;28;20461;-45
2022/06/08 12:00:35;;;;;;;11.73;10.80;;;;;;;24.49;49.04;100745.94;4973214;28;20434;-45